createdAt,value
2022-10-02T00:00:17.130Z,98551.50
2022-10-02T00:03:03.192Z,98553.88
2022-10-02T00:05:43.559Z,98550.91
2022-10-02T00:08:29.161Z,98511.81
2022-10-02T00:11:25.512Z,98560.78
2022-10-02T00:14:00.432Z,98563.13
2022-10-02T00:16:46.853Z,98554.31
2022-10-02T00:19:19.958Z,98562.78
2022-10-02T00:22:32.328Z,98570.78
2022-10-02T00:25:08.990Z,98574.63
2022-10-02T00:28:25.700Z,98574.81
2022-10-02T00:31:31.566Z,98582.44
2022-10-02T00:34:38.988Z,98590.44
2022-10-02T00:37:38.396Z,98581.78
2022-10-02T00:40:33.691Z,98576.63
2022-10-02T00:43:38.645Z,98579.66
2022-10-02T00:46:18.348Z,98543.81
2022-10-02T00:49:27.152Z,98553.28
2022-10-02T00:52:15.543Z,98592.63
2022-10-02T00:55:16.571Z,98612.97
2022-10-02T00:58:15.550Z,98593.00
2022-10-02T01:00:58.535Z,98590.50
2022-10-02T01:03:58.251Z,98595.19
2022-10-02T01:06:30.459Z,98577.25
2022-10-02T01:08:59.018Z,98605.00
2022-10-02T01:11:27.855Z,98590.72
2022-10-02T01:13:56.070Z,98567.34
2022-10-02T01:16:24.306Z,98614.34
2022-10-02T01:18:54.657Z,98609.69
2022-10-02T01:21:51.775Z,98622.00
2022-10-02T01:24:33.882Z,98562.88
2022-10-02T01:27:02.010Z,98613.38
2022-10-02T01:29:29.889Z,98580.66
2022-10-02T01:31:57.878Z,98619.84
2022-10-02T01:34:27.095Z,98630.00
2022-10-02T01:36:55.075Z,98607.75
2022-10-02T01:39:23.479Z,98627.69
2022-10-02T01:41:51.445Z,98615.72
2022-10-02T01:44:19.284Z,98622.72
2022-10-02T01:47:12.579Z,98624.53
2022-10-02T01:49:53.978Z,98631.19
2022-10-02T01:52:54.275Z,98630.19
2022-10-02T01:55:52.890Z,98642.63
2022-10-02T01:59:05.571Z,98642.66
2022-10-02T02:01:50.794Z,98635.19
2022-10-02T02:04:29.457Z,98635.50
2022-10-02T02:07:14.265Z,98639.31
2022-10-02T02:10:21.778Z,98641.31
2022-10-02T02:13:11.759Z,98625.00
2022-10-02T02:16:06.789Z,98634.47
2022-10-02T02:18:39.922Z,98610.88
2022-10-02T02:21:21.993Z,98645.94
2022-10-02T02:23:53.053Z,98609.06
2022-10-02T02:26:22.414Z,98645.13
2022-10-02T02:28:57.494Z,98606.06
2022-10-02T02:31:35.494Z,98640.81
2022-10-02T02:34:12.738Z,98619.53
2022-10-02T02:36:45.578Z,98649.44
2022-10-02T02:39:24.731Z,98643.31
2022-10-02T02:41:59.649Z,98620.69
2022-10-02T02:44:42.848Z,98666.09
2022-10-02T02:47:19.958Z,98652.28
2022-10-02T02:49:58.819Z,98633.81
2022-10-02T02:53:10.588Z,98662.25
2022-10-02T02:55:48.653Z,98665.09
2022-10-02T02:59:06.264Z,98663.41
2022-10-02T03:01:34.349Z,98664.91
2022-10-02T03:04:02.414Z,98673.06
2022-10-02T03:06:50.097Z,98663.75
2022-10-02T03:09:22.362Z,98669.72
2022-10-02T03:12:40.778Z,98672.88
2022-10-02T03:15:51.767Z,98659.94
2022-10-02T03:18:28.751Z,98664.56
2022-10-02T03:21:14.925Z,98666.25
2022-10-02T03:24:09.463Z,98646.63
2022-10-02T03:27:01.492Z,98623.84
2022-10-02T03:29:37.278Z,98613.69
2022-10-02T03:32:07.041Z,98642.28
2022-10-02T03:34:36.520Z,98585.16
2022-10-02T03:37:05.399Z,98672.56
2022-10-02T03:39:33.447Z,98670.41
2022-10-02T03:42:01.756Z,98624.03
2022-10-02T03:44:30.107Z,98668.25
2022-10-02T03:46:58.056Z,98630.66
2022-10-02T03:49:25.903Z,98664.59
2022-10-02T03:51:56.898Z,98678.25
2022-10-02T03:54:38.598Z,98679.91
2022-10-02T03:57:12.554Z,98676.56
2022-10-02T04:00:12.947Z,98681.56
2022-10-02T04:03:09.572Z,98671.41
2022-10-02T04:05:50.821Z,98676.22
2022-10-02T04:08:26.862Z,98628.50
2022-10-02T04:11:13.825Z,98684.22
2022-10-02T04:13:52.218Z,98612.56
2022-10-02T04:16:47.348Z,98681.25
2022-10-02T04:19:40.592Z,98688.22
2022-10-02T04:22:27.390Z,98685.56
2022-10-02T04:25:21.542Z,98690.03
2022-10-02T04:28:02.682Z,98679.72
2022-10-02T04:30:30.888Z,98697.22
2022-10-02T04:33:17.399Z,98656.59
2022-10-02T04:36:07.309Z,98693.38
2022-10-02T04:39:28.657Z,98702.69
2022-10-02T04:42:31.988Z,98706.16
2022-10-02T04:45:29.906Z,98663.75
2022-10-02T04:48:19.541Z,98705.31
2022-10-02T04:51:03.705Z,98695.69
2022-10-02T04:53:50.467Z,98716.97
2022-10-02T04:57:08.660Z,98720.66
2022-10-02T05:00:14.543Z,98720.47
2022-10-02T05:02:57.047Z,98709.84
2022-10-02T05:06:19.409Z,98716.47
2022-10-02T05:09:21.824Z,98709.69
2022-10-02T05:12:15.664Z,98715.34
2022-10-02T05:15:22.628Z,98647.13
2022-10-02T05:18:02.242Z,98727.94
2022-10-02T05:21:20.832Z,98722.13
2022-10-02T05:23:58.264Z,98729.09
2022-10-02T05:26:50.584Z,98724.09
2022-10-02T05:29:51.520Z,98722.75
2022-10-02T05:32:31.292Z,98726.25
2022-10-02T05:35:07.752Z,98740.59
2022-10-02T05:37:47.277Z,98735.94
2022-10-02T05:41:26.327Z,98740.44
2022-10-02T05:44:24.205Z,98745.25
2022-10-02T05:47:24.178Z,98740.44
2022-10-02T05:49:58.558Z,98755.06
2022-10-02T05:52:43.443Z,98698.53
2022-10-02T05:55:30.491Z,98758.56
2022-10-02T05:58:27.752Z,98719.97
2022-10-02T06:01:22.160Z,98756.72
2022-10-02T06:04:20.157Z,98745.25
2022-10-02T06:07:01.299Z,98751.38
2022-10-02T06:09:36.109Z,98757.88
2022-10-02T06:12:12.528Z,98761.69
2022-10-02T06:15:26.783Z,98760.00
2022-10-02T06:18:10.555Z,98759.03
2022-10-02T06:20:47.551Z,98723.25
2022-10-02T06:23:26.300Z,98757.66
2022-10-02T06:26:11.297Z,98724.44
2022-10-02T06:28:56.684Z,98732.38
2022-10-02T06:32:13.384Z,98768.00
2022-10-02T06:34:44.635Z,98759.34
2022-10-02T06:37:34.595Z,98761.34
2022-10-02T06:40:31.094Z,98767.00
2022-10-02T06:43:26.657Z,98765.97
2022-10-02T06:46:17.932Z,98768.97
2022-10-02T06:49:09.986Z,98781.63
2022-10-02T06:52:39.470Z,98780.63
2022-10-02T06:55:37.170Z,98775.31
2022-10-02T06:58:30.345Z,98802.28
2022-10-02T07:01:16.167Z,98796.63
2022-10-02T07:04:29.888Z,98785.66
2022-10-02T07:07:32.571Z,98793.13
2022-10-02T07:10:30.213Z,98773.06
2022-10-02T07:13:35.997Z,98780.50
2022-10-02T07:16:39.056Z,98793.94
2022-10-02T07:19:24.028Z,98800.41
2022-10-02T07:22:32.326Z,98750.13
2022-10-02T07:25:38.079Z,98775.81
2022-10-02T07:28:46.119Z,98789.25
2022-10-02T07:31:54.249Z,98812.25
2022-10-02T07:34:42.378Z,98800.41
2022-10-02T07:37:43.314Z,98799.50
2022-10-02T07:40:50.759Z,98796.34
2022-10-02T07:43:53.006Z,98791.44
2022-10-02T07:46:38.970Z,98768.50
2022-10-02T07:49:44.407Z,98803.88
2022-10-02T07:52:33.959Z,98746.19
2022-10-02T07:55:44.561Z,98807.81
2022-10-02T07:58:22.885Z,98803.28
2022-10-02T08:01:01.260Z,98723.00
2022-10-02T08:03:52.743Z,98757.13
2022-10-02T08:06:21.056Z,98752.28
2022-10-02T08:09:17.976Z,98797.28
2022-10-02T08:11:56.309Z,98801.63
2022-10-02T08:14:41.795Z,98801.81
2022-10-02T08:17:50.508Z,98762.72
2022-10-02T08:20:46.963Z,98784.81
2022-10-02T08:23:28.370Z,98795.31
2022-10-02T08:26:35.562Z,98794.28
2022-10-02T08:29:34.948Z,98790.88
2022-10-02T08:32:03.058Z,98779.03
2022-10-02T08:34:32.577Z,98791.91
2022-10-02T08:37:29.667Z,98803.38
2022-10-02T08:40:40.049Z,98799.13
2022-10-02T08:43:46.403Z,98788.88
2022-10-02T08:47:03.213Z,98787.38
2022-10-02T08:50:04.064Z,98798.38
2022-10-02T08:52:50.684Z,98798.28
2022-10-02T08:55:54.564Z,98743.09
2022-10-02T08:59:21.271Z,98801.22
2022-10-02T09:02:27.825Z,98756.84
2022-10-02T09:05:19.504Z,98793.66
2022-10-02T09:08:26.795Z,98811.78
2022-10-02T09:11:37.314Z,98796.84
2022-10-02T09:14:48.528Z,98759.56
2022-10-02T09:17:37.723Z,98802.47
2022-10-02T09:20:48.136Z,98789.34
2022-10-02T09:23:46.517Z,98800.66
2022-10-02T09:26:44.237Z,98801.94
2022-10-02T09:29:31.051Z,98791.09
2022-10-02T09:32:30.285Z,98795.69
2022-10-02T09:35:43.049Z,98775.38
2022-10-02T09:38:39.210Z,98773.94
2022-10-02T09:41:41.638Z,98795.94
2022-10-02T09:45:01.419Z,98799.28
2022-10-02T09:47:54.203Z,98798.09
2022-10-02T09:51:18.688Z,98794.91
2022-10-02T09:54:21.847Z,98780.06
2022-10-02T09:57:31.967Z,98777.56
2022-10-02T10:00:34.611Z,98762.59
2022-10-02T10:03:22.875Z,98745.72
2022-10-02T10:06:17.910Z,98780.00
2022-10-02T10:09:09.830Z,98766.28
2022-10-02T10:11:58.585Z,98769.66
2022-10-02T10:14:36.144Z,98797.34
2022-10-02T10:17:32.093Z,98765.00
2022-10-02T10:20:27.669Z,98784.13
2022-10-02T10:23:26.512Z,98733.31
2022-10-02T10:26:26.583Z,98790.34
2022-10-02T10:29:32.037Z,98777.22
2022-10-02T10:33:08.736Z,98739.34
2022-10-02T10:35:47.330Z,98747.72
2022-10-02T10:38:49.816Z,98775.03
2022-10-02T10:42:07.334Z,98794.41
2022-10-02T10:45:00.524Z,98776.34
2022-10-02T10:47:55.722Z,98763.72
2022-10-02T10:51:15.297Z,98761.97
2022-10-02T10:54:04.925Z,98746.97
2022-10-02T10:56:51.335Z,98737.53
2022-10-02T11:00:01.748Z,98727.97
2022-10-02T11:03:15.745Z,98743.94
2022-10-02T11:06:18.051Z,98748.91
2022-10-02T11:09:29.300Z,98679.72
2022-10-02T11:12:24.850Z,98743.66
2022-10-02T11:15:43.867Z,98741.97
2022-10-02T11:18:40.478Z,98705.97
2022-10-02T11:22:14.987Z,98736.09
2022-10-02T11:25:21.050Z,98742.50
2022-10-02T11:28:22.361Z,98745.69
2022-10-02T11:31:30.497Z,98705.78
2022-10-02T11:34:20.683Z,98717.53
2022-10-02T11:37:13.487Z,98699.94
2022-10-02T11:40:13.094Z,98726.97
2022-10-02T11:42:56.188Z,98735.84
2022-10-02T11:45:43.937Z,98719.53
2022-10-02T11:48:57.475Z,98737.94
2022-10-02T11:52:06.244Z,98721.63
2022-10-02T11:55:22.365Z,98728.41
2022-10-02T11:58:09.673Z,98725.72
2022-10-02T12:01:32.302Z,98742.03
2022-10-02T12:04:54.888Z,98756.31
2022-10-02T12:07:28.882Z,98746.44
2022-10-02T12:10:50.126Z,98731.97
2022-10-02T12:13:49.556Z,98731.88
2022-10-02T12:16:43.864Z,98731.34
2022-10-02T12:19:25.272Z,98731.59
2022-10-02T12:23:04.645Z,98734.38
2022-10-02T12:26:13.617Z,98724.34
2022-10-02T12:29:12.897Z,98737.22
2022-10-02T12:32:09.972Z,98715.75
2022-10-02T12:35:24.384Z,98740.91
2022-10-02T12:38:40.732Z,98737.22
2022-10-02T12:42:05.167Z,98734.88
2022-10-02T12:45:19.300Z,98747.19
2022-10-02T12:48:17.775Z,98756.19
2022-10-02T12:51:22.544Z,98755.97
2022-10-02T12:54:40.459Z,98787.13
2022-10-02T12:57:52.953Z,98747.50
2022-10-02T13:00:42.101Z,98744.09
2022-10-02T13:03:55.446Z,98695.50
2022-10-02T13:06:46.749Z,98766.31
2022-10-02T13:09:17.409Z,98764.81
2022-10-02T13:12:25.386Z,98767.25
2022-10-02T13:15:06.598Z,98754.91
2022-10-02T13:17:49.343Z,98755.88
2022-10-02T13:20:39.084Z,98764.97
2022-10-02T13:23:41.703Z,98741.91
2022-10-02T13:26:52.429Z,98740.81
2022-10-02T13:29:43.230Z,98741.59
2022-10-02T13:32:36.827Z,98721.25
2022-10-02T13:35:20.034Z,98729.16
2022-10-02T13:38:19.157Z,98733.66
2022-10-02T13:41:05.265Z,98735.56
2022-10-02T13:43:52.516Z,98699.53
2022-10-02T13:46:47.159Z,98730.38
2022-10-02T13:49:43.202Z,98731.75
2022-10-02T13:52:23.200Z,98730.22
2022-10-02T13:55:13.450Z,98736.50
2022-10-02T13:58:29.137Z,98727.72
2022-10-02T14:01:24.863Z,98714.72
2022-10-02T14:04:17.989Z,98728.84
2022-10-02T14:07:31.550Z,98730.03
2022-10-02T14:10:08.309Z,98725.06
2022-10-02T14:13:26.390Z,98721.72
2022-10-02T14:16:45.254Z,98707.09
2022-10-02T14:19:58.484Z,98718.88
2022-10-02T14:23:00.011Z,98710.31
2022-10-02T14:26:12.276Z,98717.34
2022-10-02T14:29:08.946Z,98720.34
2022-10-02T14:32:04.879Z,98732.94
2022-10-02T14:34:47.510Z,98706.09
2022-10-02T14:37:46.275Z,98711.69
2022-10-02T14:40:18.522Z,98709.84
2022-10-02T14:43:23.224Z,98707.09
2022-10-02T14:46:19.366Z,98706.69
2022-10-02T14:49:21.704Z,98673.47
2022-10-02T14:52:31.550Z,98687.88
2022-10-02T14:55:44.618Z,98675.00
2022-10-02T14:58:29.548Z,98708.91
2022-10-02T15:01:23.720Z,98669.53
2022-10-02T15:03:51.808Z,98707.03
2022-10-02T15:06:47.563Z,98692.28
2022-10-02T15:09:33.887Z,98702.69
2022-10-02T15:12:05.870Z,98674.91
2022-10-02T15:15:18.835Z,98702.31
2022-10-02T15:18:11.110Z,98715.19
2022-10-02T15:21:05.821Z,98710.13
2022-10-02T15:23:33.752Z,98713.00
2022-10-02T15:26:18.059Z,98690.88
2022-10-02T15:29:00.417Z,98712.69
2022-10-02T15:31:44.497Z,98702.06
2022-10-02T15:34:56.961Z,98698.13
2022-10-02T15:38:13.693Z,98664.63
2022-10-02T15:41:29.775Z,98660.47
2022-10-02T15:44:28.798Z,98716.03
2022-10-02T15:47:30.681Z,98712.72
2022-10-02T15:50:24.655Z,98702.22
2022-10-02T15:53:37.823Z,98697.94
2022-10-02T15:56:23.521Z,98708.44
2022-10-02T15:59:21.113Z,98664.00
2022-10-02T16:02:07.215Z,98669.81
2022-10-02T16:04:46.955Z,98709.22
2022-10-02T16:07:54.277Z,98692.97
2022-10-02T16:10:33.268Z,98684.47
2022-10-02T16:13:41.400Z,98708.38
2022-10-02T16:16:39.229Z,98715.44
2022-10-02T16:19:33.962Z,98708.94
2022-10-02T16:22:18.095Z,98571.13
2022-10-02T16:25:06.708Z,98711.34
2022-10-02T16:27:56.840Z,98693.22
2022-10-02T16:30:27.344Z,98707.56
2022-10-02T16:33:32.342Z,98713.53
2022-10-02T16:36:19.304Z,98721.34
2022-10-02T16:39:36.919Z,98713.22
2022-10-02T16:42:46.114Z,98716.91
2022-10-02T16:45:50.758Z,98715.28
2022-10-02T16:49:11.181Z,98724.28
2022-10-02T16:52:18.829Z,98706.72
2022-10-02T16:55:06.555Z,98707.22
2022-10-02T16:57:43.230Z,98680.50
2022-10-02T17:00:32.885Z,98722.56
2022-10-02T17:03:41.982Z,98719.78
2022-10-02T17:06:29.802Z,98720.78
2022-10-02T17:09:15.000Z,98727.59
2022-10-02T17:12:35.028Z,98726.78
2022-10-02T17:15:48.331Z,98739.75
2022-10-02T17:18:34.812Z,98742.56
2022-10-02T17:21:24.562Z,98712.66
2022-10-02T17:24:15.097Z,98741.44
2022-10-02T17:27:04.575Z,98727.81
2022-10-02T17:30:15.344Z,98723.81
2022-10-02T17:32:46.777Z,98725.44
2022-10-02T17:35:37.459Z,98723.47
2022-10-02T17:38:36.770Z,98722.47
2022-10-02T17:41:30.435Z,98713.47
2022-10-02T17:44:23.694Z,98670.88
2022-10-02T17:47:47.599Z,98708.84
2022-10-02T17:50:50.203Z,98704.28
2022-10-02T17:54:17.998Z,98680.34
2022-10-02T17:57:02.614Z,98691.50
2022-10-02T18:00:21.499Z,98706.78
2022-10-02T18:02:52.926Z,98675.69
2022-10-02T18:05:54.979Z,98707.97
2022-10-02T18:09:23.693Z,98715.94
2022-10-02T18:12:31.730Z,98712.44
2022-10-02T18:15:36.752Z,98713.75
2022-10-02T18:18:24.551Z,98711.47
2022-10-02T18:21:11.895Z,98716.78
2022-10-02T18:24:18.611Z,98726.13
2022-10-02T18:27:32.572Z,98714.59
2022-10-02T18:30:31.637Z,98716.09
2022-10-02T18:33:31.911Z,98690.81
2022-10-02T18:36:32.026Z,98714.44
2022-10-02T18:39:17.787Z,98721.56
2022-10-02T18:41:57.943Z,98716.09
2022-10-02T18:44:56.541Z,98685.50
2022-10-02T18:47:51.227Z,98718.56
2022-10-02T18:50:39.821Z,98729.72
2022-10-02T18:53:30.854Z,98713.09
2022-10-02T18:56:12.038Z,98689.78
2022-10-02T18:59:27.095Z,98716.22
2022-10-02T19:02:02.453Z,98722.38
2022-10-02T19:05:09.675Z,98731.66
2022-10-02T19:07:52.714Z,98725.00
2022-10-02T19:10:31.935Z,98723.66
2022-10-02T19:13:30.280Z,98713.66
2022-10-02T19:16:16.431Z,98719.34
2022-10-02T19:18:44.643Z,98721.34
2022-10-02T19:21:16.591Z,98714.00
2022-10-02T19:24:14.037Z,98677.22
2022-10-02T19:26:52.278Z,98723.81
2022-10-02T19:29:32.189Z,98723.66
2022-10-02T19:32:18.631Z,98725.47
2022-10-02T19:34:57.671Z,98713.31
2022-10-02T19:37:27.167Z,98705.03
2022-10-02T19:40:03.006Z,98708.50
2022-10-02T19:42:45.084Z,98719.50
2022-10-02T19:45:29.117Z,98704.38
2022-10-02T19:48:10.954Z,98716.38
2022-10-02T19:50:55.670Z,98717.38
2022-10-02T19:53:29.940Z,98714.56
2022-10-02T19:56:02.440Z,98711.06
2022-10-02T19:58:47.768Z,98704.78
2022-10-02T20:01:24.210Z,98689.47
2022-10-02T20:04:01.677Z,98656.88
2022-10-02T20:06:35.276Z,98692.78
2022-10-02T20:09:25.307Z,98681.81
2022-10-02T20:12:05.060Z,98696.97
2022-10-02T20:14:50.612Z,98701.59
2022-10-02T20:17:19.496Z,98691.31
2022-10-02T20:19:57.876Z,98698.81
2022-10-02T20:22:43.949Z,98704.13
2022-10-02T20:25:30.146Z,98693.50
2022-10-02T20:28:18.558Z,98693.34
2022-10-02T20:31:01.269Z,98693.34
2022-10-02T20:33:50.749Z,98685.81
2022-10-02T20:36:41.212Z,98687.16
2022-10-02T20:39:16.354Z,98654.72
2022-10-02T20:42:04.608Z,98648.44
2022-10-02T20:44:37.033Z,98689.16
2022-10-02T20:47:44.741Z,98686.31
2022-10-02T20:50:26.786Z,98652.94
2022-10-02T20:53:34.383Z,98681.53
2022-10-02T20:56:41.368Z,98688.41
2022-10-02T20:59:56.765Z,98687.56
2022-10-02T21:03:25.986Z,98681.22
2022-10-02T21:06:38.074Z,98682.91
2022-10-02T21:09:30.765Z,98637.81
2022-10-02T21:12:23.549Z,98685.56
2022-10-02T21:15:11.669Z,98598.09
2022-10-02T21:18:19.770Z,98670.59
2022-10-02T21:21:21.717Z,98671.09
2022-10-02T21:24:01.980Z,98668.41
2022-10-02T21:26:55.817Z,98663.94
2022-10-02T21:30:01.087Z,98583.13
2022-10-02T21:33:11.805Z,98651.28
2022-10-02T21:36:00.633Z,98659.13
2022-10-02T21:38:50.667Z,98656.94
2022-10-02T21:41:58.737Z,98658.63
2022-10-02T21:44:49.187Z,98654.59
2022-10-02T21:47:45.382Z,98600.06
2022-10-02T21:50:40.944Z,98662.25
2022-10-02T21:53:42.055Z,98652.75
2022-10-02T21:56:27.814Z,98660.91
2022-10-02T21:59:02.050Z,98654.28
2022-10-02T22:02:17.875Z,98655.94
2022-10-02T22:05:45.643Z,98658.59
2022-10-02T22:08:35.434Z,98658.59
2022-10-02T22:11:24.904Z,98652.94
2022-10-02T22:14:05.492Z,98616.19
2022-10-02T22:16:57.804Z,98670.25
2022-10-02T22:20:20.756Z,98653.94
2022-10-02T22:23:20.031Z,98670.09
2022-10-02T22:26:36.709Z,98650.97
2022-10-02T22:29:22.604Z,98636.50
2022-10-02T22:32:28.211Z,98657.13
2022-10-02T22:35:21.078Z,98655.13
2022-10-02T22:38:16.899Z,98658.28
2022-10-02T22:41:21.802Z,98662.94
2022-10-02T22:44:00.042Z,98627.34
2022-10-02T22:46:47.696Z,98658.25
2022-10-02T22:49:36.234Z,98661.75
2022-10-02T22:52:34.260Z,98646.13
2022-10-02T22:55:30.075Z,98653.94
2022-10-02T22:58:20.352Z,98623.84
2022-10-02T23:01:39.928Z,98660.56
2022-10-02T23:04:37.648Z,98662.56
2022-10-02T23:07:39.474Z,98663.56
2022-10-02T23:10:20.649Z,98659.09
2022-10-02T23:13:15.513Z,98654.75
2022-10-02T23:16:08.652Z,98615.03
2022-10-02T23:18:54.489Z,98661.88
2022-10-02T23:21:59.539Z,98655.25
2022-10-02T23:25:42.960Z,98660.59
2022-10-02T23:28:34.265Z,98661.56
2022-10-02T23:31:31.688Z,98660.06
2022-10-02T23:34:19.979Z,98664.56
2022-10-02T23:37:01.297Z,98670.88
2022-10-02T23:40:42.998Z,98668.22
2022-10-02T23:43:28.611Z,98660.91
2022-10-02T23:46:15.097Z,98660.56
2022-10-02T23:48:45.690Z,98668.56
2022-10-02T23:52:15.603Z,98669.22
2022-10-02T23:55:04.000Z,98670.88
2022-10-02T23:58:08.321Z,98675.19
